Time;durP1;ratioP1;P1;durP2;ratioP2;P2;SDS_P1;SDS_P2;PMS_P1;PMS_P2;Temp;Humidity;BMP_temperature;BMP_pressure;BME280_temperature;BME280_humidity;BME280_pressure;Samples;Min_cycle;Max_cycle;Signal;HPM_P1;HPM_P2
2021/11/23 00:00:47;;;;;;;;;;;;;;;;;;;;;
2021/11/23 00:04:07;;;;;;;;;;;;;;;;;;;;;
2021/11/23 00:07:25;;;;;;;;;;;;;;;;;;;;;
2021/11/23 00:13:54;;;;;;;;;;;;;;;;;;;;;
2021/11/23 00:16:56;;;;;;;;;;;;;;;;;;;;;
2021/11/23 00:19:35;;;;;;;;;;;;;;;;;;;;;
2021/11/23 00:23:00;;;;;;;;;;;;;;;;;;;;;
2021/11/23 00:25:47;;;;;;;;;;;;;;;;;;;;;
2021/11/23 00:31:59;;;;;;;;;23.75;20.75;;;;;5.27;61.41;102517.78;5005532;28;47014;-88
2021/11/23 00:35:12;;;;;;;;;;;;;;;;;;;;;
2021/11/23 01:50:17;;;;;;;;;12.50;9.50;;;;;5.00;62.05;102538.25;3221528;26;46033;-86
2021/11/23 01:52:53;;;;;;;;;22.50;19.25;;;;;4.95;62.26;102552.81;5075652;28;45273;-86
2021/11/23 01:55:43;;;;;;;;;;;;;;;;;;;;;
2021/11/23 01:58:24;;;;;;;;;;;;;;;;;;;;;
2021/11/23 02:00:50;;;;;;;;;19.25;17.50;;;;;4.80;62.40;102550.31;5064578;28;75134;-87
2021/11/23 02:03:45;;;;;;;;;20.00;15.00;;;;;4.92;62.25;102568.31;5080551;28;45839;-85
2021/11/23 02:06:23;;;;;;;;;21.75;20.75;;;;;4.87;62.35;102559.38;5064498;28;45547;-86
2021/11/23 02:08:52;;;;;;;;;26.25;22.00;;;;;4.88;62.71;102552.44;5065062;28;45320;-86
2021/11/23 02:11:28;;;;;;;;;;;;;;;;;;;;;
2021/11/23 02:14:02;;;;;;;;;19.25;17.50;;;;;4.80;62.56;102539.91;5072007;28;71824;-88
2021/11/23 02:16:32;;;;;;;;;18.50;17.75;;;;;4.71;62.93;102531.63;5086502;28;44772;-86
2021/11/23 02:19:01;;;;;;;;;18.75;17.25;;;;;4.64;62.64;102534.75;5061012;28;45327;-85
2021/11/23 02:21:35;;;;;;;;;22.50;19.75;;;;;4.78;62.73;102557.19;5071006;28;45269;-86
2021/11/23 02:24:03;;;;;;;;;20.25;17.25;;;;;4.56;62.86;102518.72;5070542;28;45326;-86
2021/11/23 02:26:34;;;;;;;;;18.75;17.00;;;;;4.76;62.96;102557.94;5071880;28;45344;-86
2021/11/23 02:29:04;;;;;;;;;14.25;14.25;;;;;4.74;62.54;102552.66;5070066;28;45254;-86
2021/11/23 02:31:40;;;;;;;;;22.25;21.00;;;;;4.60;62.67;102525.88;5078423;28;46311;-87
2021/11/23 02:34:16;;;;;;;;;23.50;19.00;;;;;4.61;62.99;102526.78;5069311;28;45164;-86
2021/11/23 02:36:45;;;;;;;;;22.75;18.25;;;;;4.73;62.56;102540.44;5073310;28;45478;-87
2021/11/23 02:39:13;;;;;;;;;23.50;19.25;;;;;4.79;63.05;102552.88;5062349;27;45186;-87
2021/11/23 02:41:41;;;;;;;;;20.75;18.75;;;;;4.80;62.49;102554.66;5049273;28;47456;-87
2021/11/23 02:44:09;;;;;;;;;20.50;20.50;;;;;4.77;62.63;102538.84;5065443;28;45691;-86
2021/11/23 02:46:42;;;;;;;;;23.50;19.00;;;;;4.62;62.82;102512.91;5064961;28;45291;-87
2021/11/23 02:49:08;;;;;;;;;25.00;20.00;;;;;4.86;62.58;102555.88;5064434;28;45445;-87
2021/11/23 02:51:36;;;;;;;;;20.50;17.75;;;;;4.81;62.46;102530.34;5075660;28;46211;-86
2021/11/23 02:54:08;;;;;;;;;26.50;20.50;;;;;4.83;62.32;102547.88;5060674;28;45335;-87
2021/11/23 02:56:41;;;;;;;;;24.25;21.75;;;;;4.86;62.18;102539.28;5046736;28;45467;-86
2021/11/23 02:59:07;;;;;;;;;18.75;18.75;;;;;4.70;62.32;102510.66;5053129;28;45336;-87
2021/11/23 03:01:38;;;;;;;;;20.00;17.25;;;;;4.87;62.36;102541.09;5077898;28;46373;-86
2021/11/23 03:04:15;;;;;;;;;15.25;14.25;;;;;4.69;62.30;102507.16;5063867;28;45271;-86
2021/11/23 03:06:43;;;;;;;;;22.25;20.75;;;;;4.81;62.33;102539.09;5045920;28;45437;-87
2021/11/23 03:09:26;;;;;;;;;;;;;;;;;;;;;
2021/11/23 03:11:52;;;;;;;;;23.00;19.75;;;;;4.78;61.65;102528.47;5070847;28;73328;-87
2021/11/23 03:14:19;;;;;;;;;17.25;17.25;;;;;4.85;61.54;102542.72;5070738;28;45331;-86
2021/11/23 03:16:45;;;;;;;;;24.00;18.75;;;;;4.69;61.84;102517.59;5065126;28;45216;-86
2021/11/23 03:19:12;;;;;;;;;22.00;18.25;;;;;4.78;61.79;102535.41;5062217;28;45464;-87
2021/11/23 03:21:38;;;;;;;;;23.50;20.00;;;;;4.68;61.90;102513.22;5062906;28;46895;-85
2021/11/23 03:24:04;;;;;;;;;22.25;19.50;;;;;4.63;61.70;102504.28;5063098;28;45360;-86
2021/11/23 03:26:29;;;;;;;;;16.00;15.00;;;;;4.72;61.48;102511.66;5058522;28;45387;-86
2021/11/23 03:28:57;;;;;;;;;17.75;15.00;;;;;4.76;61.74;102521.44;5062412;28;45568;-84
2021/11/23 03:31:23;;;;;;;;;22.00;21.50;;;;;4.57;61.31;102489.22;5054147;28;47061;-86
2021/11/23 03:33:50;;;;;;;;;14.50;14.00;;;;;4.55;61.50;102483.03;5069379;28;45877;-86
2021/11/23 03:36:16;;;;;;;;;21.50;20.00;;;;;4.62;61.98;102506.00;5074424;28;45311;-85
2021/11/23 03:38:47;;;;;;;;;22.75;21.25;;;;;4.57;61.70;102493.53;5062051;28;45220;-87
2021/11/23 03:41:23;;;;;;;;;;;;;;;;;;;;;
2021/11/23 03:43:51;;;;;;;;;20.25;19.00;;;;;4.49;61.47;102481.81;5065436;28;73939;-85
2021/11/23 03:46:16;;;;;;;;;20.50;19.00;;;;;4.51;61.39;102480.19;5061214;28;45456;-87
2021/11/23 03:48:44;;;;;;;;;28.00;20.50;;;;;4.66;61.44;102516.56;5065872;28;45264;-88
2021/11/23 03:51:10;;;;;;;;;16.25;14.75;;;;;4.53;61.75;102491.59;5071693;28;46057;-88
2021/11/23 03:53:35;;;;;;;;;21.25;18.00;;;;;4.48;61.45;102477.44;5063906;28;45413;-87
2021/11/23 03:56:11;;;;;;;;;19.50;18.00;;;;;4.65;61.50;102513.03;5067156;28;45414;-86
2021/11/23 03:58:39;;;;;;;;;20.00;18.00;;;;;4.60;61.25;102506.75;5051138;28;45520;-87
2021/11/23 04:01:04;;;;;;;;;25.75;23.25;;;;;4.56;60.89;102516.09;5062243;28;46125;-85
2021/11/23 04:03:30;;;;;;;;;22.50;19.50;;;;;4.52;61.40;102506.34;5062927;28;45309;-87
2021/11/23 04:05:56;;;;;;;;;21.25;18.75;;;;;4.57;61.18;102503.94;5062169;28;44666;-87
2021/11/23 04:08:22;;;;;;;;;25.25;24.25;;;;;4.62;61.21;102519.03;5061841;28;45288;-87
2021/11/23 04:10:55;;;;;;;;;25.25;24.00;;;;;4.53;61.19;102504.63;5063023;28;45340;-86
2021/11/23 04:13:24;;;;;;;;;25.50;22.25;;;;;4.56;61.04;102497.84;5061257;28;45212;-86
2021/11/23 04:16:02;;;;;;;;;;;;;;;;;;;;;
2021/11/23 04:18:44;;;;;;;;;;;;;;;;;;;;;
2021/11/23 04:21:16;;;;;;;;;19.75;18.25;;;;;4.42;61.42;102491.06;5085599;28;74150;-86
2021/11/23 04:23:57;;;;;;;;;21.00;20.00;;;;;4.59;61.46;102513.66;5084643;28;45255;-87
2021/11/23 04:26:26;;;;;;;;;22.75;21.50;;;;;4.49;61.40;102500.06;5059163;28;45383;-86
2021/11/23 04:29:01;;;;;;;;;21.00;17.00;;;;;4.43;61.05;102496.34;5061965;28;45443;-86
2021/11/23 04:31:39;;;;;;;;;18.00;16.00;;;;;4.49;61.54;102503.59;5062060;28;47453;-87
2021/11/23 04:34:06;;;;;;;;;19.75;17.25;;;;;4.60;60.95;102523.28;5061281;28;45267;-85
2021/11/23 04:36:32;;;;;;;;;21.75;19.75;;;;;4.53;61.04;102510.75;5051275;28;45410;-87
2021/11/23 04:39:10;;;;;;;;;;;;;;;;;;;;;
2021/11/23 04:41:38;;;;;;;;;22.75;22.25;;;;;4.42;61.08;102478.91;5073260;28;75656;-86
2021/11/23 04:44:07;;;;;;;;;17.25;14.50;;;;;4.51;61.33;102488.00;5063809;28;45324;-86
2021/11/23 04:46:49;;;;;;;;;22.25;16.75;;;;;4.64;61.14;102519.97;5062077;28;45460;-86
2021/11/23 04:49:14;;;;;;;;;23.00;18.75;;;;;4.65;61.20;102515.66;5049211;28;45710;-87
2021/11/23 04:51:53;;;;;;;;;;;;;;;;;;;;;
2021/11/23 04:54:19;;;;;;;;;22.50;21.75;;;;;4.52;61.20;102502.88;5062910;28;72841;-86
2021/11/23 04:56:45;;;;;;;;;18.25;16.50;;;;;4.57;60.61;102520.53;5043505;28;45474;-87
2021/11/23 04:59:11;;;;;;;;;19.00;17.50;;;;;4.47;61.38;102504.34;5036279;28;45301;-85
2021/11/23 05:01:38;;;;;;;;;23.25;19.00;;;;;4.50;61.30;102507.09;5028218;28;48072;-86
2021/11/23 05:04:05;;;;;;;;;21.00;19.50;;;;;4.53;60.96;102510.75;5044695;28;45502;-87
2021/11/23 05:06:33;;;;;;;;;24.75;23.00;;;;;4.64;61.30;102534.75;5030837;28;45644;-87
2021/11/23 05:09:00;;;;;;;;;17.00;15.50;;;;;4.45;61.24;102496.44;5034386;28;45352;-87
2021/11/23 05:11:28;;;;;;;;;17.00;15.25;;;;;4.44;60.84;102505.09;5045701;28;45522;-87
2021/11/23 05:13:54;;;;;;;;;20.25;17.50;;;;;4.43;60.67;102506.78;5033636;28;45319;-87
2021/11/23 05:16:27;;;;;;;;;18.25;16.75;;;;;4.42;60.82;102506.72;5037538;28;45341;-85
2021/11/23 05:18:53;;;;;;;;;14.50;14.25;;;;;4.47;61.13;102509.56;5041914;28;45201;-87
2021/11/23 05:21:18;;;;;;;;;22.50;20.25;;;;;4.49;60.73;102521.84;5028756;28;47012;-87
2021/11/23 05:24:13;;;;;;;;;16.50;15.25;;;;;4.60;60.75;102544.13;5048753;28;45266;-86
2021/11/23 05:26:42;;;;;;;;;21.25;18.50;;;;;4.41;60.84;102511.03;5051351;28;45166;-87
2021/11/23 05:29:10;;;;;;;;;22.75;19.50;;;;;4.43;60.62;102505.88;5030397;28;45813;-87
2021/11/23 05:31:39;;;;;;;;;22.25;19.00;;;;;4.47;60.30;102515.66;5033834;28;47025;-87
2021/11/23 05:34:09;;;;;;;;;22.75;18.00;;;;;4.52;60.41;102529.84;5059770;28;45786;-84
2021/11/23 05:36:35;;;;;;;;;20.75;18.00;;;;;4.44;60.71;102512.91;5032790;28;45284;-86
2021/11/23 05:39:06;;;;;;;;;21.00;18.00;;;;;4.54;60.63;102537.72;5052387;28;45435;-87
2021/11/23 05:41:32;;;;;;;;;22.00;18.00;;;;;4.48;60.30;102521.75;5031592;28;46375;-86
2021/11/23 05:44:01;;;;;;;;;20.75;19.75;;;;;4.53;60.43;102538.53;5022939;28;45559;-86
2021/11/23 05:46:29;;;;;;;;;16.50;13.00;;;;;4.35;59.99;102508.09;5027293;28;45460;-85
2021/11/23 05:49:02;;;;;;;;;17.50;16.75;;;;;4.58;60.58;102553.59;5029696;28;45559;-87
2021/11/23 05:51:36;;;;;;;;;24.50;17.00;;;;;4.50;60.10;102551.44;5023847;28;48098;-86
2021/11/23 05:54:04;;;;;;;;;18.75;18.00;;;;;4.37;60.71;102529.06;5040357;28;45324;-87
2021/11/23 05:56:33;;;;;;;;;20.00;17.75;;;;;4.51;60.63;102554.09;5026944;28;45433;-86
2021/11/23 05:59:00;;;;;;;;;16.00;16.00;;;;;4.43;60.38;102537.16;5048066;28;44775;-88
2021/11/23 06:01:52;;;;;;;;;18.00;17.00;;;;;4.51;60.28;102555.81;5040579;28;46469;-87
2021/11/23 06:04:47;;;;;;;;;17.25;16.00;;;;;4.39;60.66;102543.06;5021915;28;45789;-87
2021/11/23 06:07:30;;;;;;;;;22.75;19.75;;;;;4.35;60.46;102541.09;5014233;28;45461;-87
2021/11/23 06:09:56;;;;;;;;;22.00;18.75;;;;;4.26;60.08;102525.91;5043290;28;45363;-87
2021/11/23 06:12:28;;;;;;;;;20.75;20.75;;;;;4.25;60.38;102533.63;5042796;28;46355;-88
2021/11/23 06:15:11;;;;;;;;;;;;;;;;;;;;;
2021/11/23 06:17:58;;;;;;;;;22.25;18.50;;;;;4.19;60.51;102532.50;5041860;28;68753;-86
2021/11/23 06:20:38;;;;;;;;;21.00;18.25;;;;;4.41;60.59;102564.88;5032537;28;45544;-87
2021/11/23 06:23:22;;;;;;;;;21.50;17.50;;;;;4.22;60.12;102529.16;5041308;28;47768;-87
2021/11/23 06:26:01;;;;;;;;;;;;;;;;;;;;;
2021/11/23 06:28:47;;;;;;;;;22.00;18.50;;;;;4.28;60.56;102537.31;5043207;28;67719;-87
2021/11/23 06:31:16;;;;;;;;;15.00;14.25;;;;;4.23;60.10;102532.69;5041569;28;45536;-87
2021/11/23 06:33:57;;;;;;;;;;;;;;;;;;;;;
2021/11/23 06:36:31;;;;;;;;;21.50;19.50;;;;;4.27;60.46;102539.81;5042384;28;72869;-87
2021/11/23 06:39:05;;;;;;;;;17.00;15.25;;;;;4.37;59.98;102565.56;5038921;28;45216;-86
2021/11/23 06:41:42;;;;;;;;;28.50;23.25;;;;;4.23;60.52;102543.09;5030916;28;45347;-86
2021/11/23 06:44:10;;;;;;;;;24.50;18.25;;;;;4.42;60.32;102570.19;5042197;28;45747;-86
2021/11/23 06:46:36;;;;;;;;;16.00;14.25;;;;;4.24;59.78;102551.00;5040752;28;45418;-86
2021/11/23 06:49:03;;;;;;;;;18.25;17.00;;;;;4.31;59.91;102568.75;5041595;28;45438;-87
2021/11/23 06:51:30;;;;;;;;;14.25;10.00;;;;;4.22;60.01;102556.94;5024033;28;45932;-85
2021/11/23 06:53:55;;;;;;;;;17.50;17.00;;;;;4.21;59.87;102558.66;5041698;28;46362;-86
2021/11/23 06:56:21;;;;;;;;;21.75;17.25;;;;;4.23;59.87;102566.56;5039807;28;45198;-85
2021/11/23 06:59:07;;;;;;;;;24.75;18.50;;;;;4.38;59.54;102596.00;5048386;28;45242;-86
2021/11/23 07:01:35;;;;;;;;;17.00;15.75;;;;;4.37;59.92;102599.44;5040360;28;45601;-86
2021/11/23 07:04:01;;;;;;;;;21.25;20.50;;;;;4.30;59.98;102586.91;5023692;28;47170;-86
2021/11/23 07:06:26;;;;;;;;;16.75;16.00;;;;;4.37;60.10;102599.44;5023452;28;45495;-86
2021/11/23 07:09:00;;;;;;;;;22.75;16.50;;;;;4.37;60.01;102595.13;5024043;28;45415;-86
2021/11/23 07:11:31;;;;;;;;;17.75;17.75;;;;;4.21;59.90;102558.66;5040242;28;45545;-86
2021/11/23 07:14:08;;;;;;;;;;;;;;;;;;;;;
2021/11/23 07:16:45;;;;;;;;;;;;;;;;;;;;;
2021/11/23 07:19:11;;;;;;;;;17.00;15.25;;;;;4.27;60.09;102581.53;5040442;28;68157;-85
2021/11/23 07:21:42;;;;;;;;;21.75;19.75;;;;;4.29;59.81;102578.19;5041451;28;45415;-85
2021/11/23 07:24:24;;;;;;;;;18.25;14.00;;;;;4.34;59.39;102594.97;5039740;28;47311;-87
2021/11/23 07:27:09;;;;;;;;;;;;;;;;;;;;;
2021/11/23 07:29:48;;;;;;;;;;;;;;;;;;;;;
2021/11/23 07:32:26;;;;;;;;;19.25;15.00;;;;;4.48;59.50;102615.66;5040553;28;71819;-87
2021/11/23 07:34:53;;;;;;;;;14.50;13.75;;;;;4.50;59.32;102629.66;5041187;28;46184;-83
2021/11/23 07:47:47;;;;;;;;;20.25;19.00;;;;;4.49;59.12;102630.47;4929939;28;45447;-85
2021/11/23 07:50:16;;;;;;;;;18.25;16.00;;;;;4.38;58.65;102615.19;4978682;28;45286;-85
2021/11/23 07:56:13;;;;;;;;;17.25;15.25;;;;;4.59;59.18;102635.34;5027288;28;46092;-87
2021/11/23 07:59:12;;;;;;;;;;;;;;;;;;;;;
2021/11/23 08:01:40;;;;;;;;;14.50;14.00;;;;;4.61;58.68;102631.09;5039173;28;72554;-85
2021/11/23 08:04:06;;;;;;;;;14.75;13.50;;;;;4.53;58.42;102622.00;5018976;28;45245;-83
2021/11/23 08:06:32;;;;;;;;;13.75;12.50;;;;;4.73;58.75;102657.84;5035423;28;45174;-83
2021/11/23 08:09:28;;;;;;;;;;;;;;;;;;;;;
2021/11/23 08:11:51;;;;;;;;;16.25;14.25;;;;;4.60;57.95;102632.81;5023412;28;45438;-85
2021/11/23 08:14:17;;;;;;;;;16.25;12.00;;;;;4.65;57.99;102633.03;5040272;28;45424;-84
2021/11/23 08:16:56;;;;;;;;;17.50;14.50;;;;;4.63;57.40;102634.69;5038735;28;45186;-84
2021/11/23 08:23:50;;;;;;;;;16.00;11.50;;;;;4.82;57.72;102662.63;5008905;28;45522;-84
2021/11/23 08:26:56;;;;;;;;;;;;;;;;;;;;;
2021/11/23 08:30:02;;;;;;;;;;;;;;;;;;;;;
2021/11/23 08:32:55;;;;;;;;;;;;;;;;;;;;;
2021/11/23 08:43:40;;;;;;;;;;;;;;;;;;;;;
2021/11/23 09:00:28;;;;;;;;;10.50;10.50;;;;;5.31;55.99;102649.38;4987785;28;45828;-83
2021/11/23 09:03:03;;;;;;;;;10.50;9.75;;;;;5.28;55.66;102621.41;5031872;28;45411;-83
2021/11/23 09:05:32;;;;;;;;;14.00;11.25;;;;;5.47;55.66;102646.69;5021315;28;45461;-82
2021/11/23 09:08:02;;;;;;;;;8.50;8.50;;;;;5.58;55.42;102660.25;5039185;28;45472;-86
2021/11/23 09:10:40;;;;;;;;;;;;;;;;;;;;;
2021/11/23 09:13:09;;;;;;;;;9.25;7.50;;;;;5.54;55.92;102624.38;5038798;28;72923;-87
2021/11/23 09:15:37;;;;;;;;;14.75;10.25;;;;;5.73;55.02;102649.63;5039714;28;45297;-86
2021/11/23 09:18:31;;;;;;;;;10.50;10.50;;;;;5.68;54.67;102633.75;5038398;28;45508;-87
2021/11/23 09:24:51;;;;;;;;;;;;;;;;;;;;;
2021/11/23 09:27:22;;;;;;;;;6.00;4.00;;;;;6.07;54.25;102673.03;5015085;28;67587;-85
2021/11/23 09:30:26;;;;;;;;;8.75;8.00;;;;;6.16;54.04;102667.34;5022206;28;45521;-91
2021/11/23 09:54:30;;;;;;;;;5.00;4.00;;;;;7.10;52.20;102664.44;4830591;29;45368;-87
2021/11/23 10:04:36;;;;;;;;;4.25;3.00;;;;;7.46;50.73;102662.44;4686898;30;45519;-88
2021/11/23 11:20:30;;;;;;;;;2.00;2.00;;;;;11.03;42.27;102582.78;5852617;22;46250;-78
2021/11/23 11:23:23;;;;;;;;;4.00;3.00;;;;;11.28;41.98;102586.91;5035256;28;45561;-82
2021/11/23 14:01:29;;;;;;;;;6.33;2.67;;;;;18.01;31.81;102429.75;5247671;23;45449;-80
2021/11/23 14:04:41;;;;;;;;;2.67;2.67;;;;;18.32;31.82;102421.53;4958822;28;45411;-82
2021/11/23 15:02:24;;;;;;;;;1.00;1.00;;;;;14.72;35.90;102433.41;4762764;29;45464;-81
